Latest Weather Observations for Cerberus

IDV60901

Issued at 10:31 am EDT Monday 27 February 2017 (issued every 10 minutes, with the page automatically refreshed every 10 minutes)

About weather observations | Map of Melbourne area stations | Latest observations for Melbourne area | Other Formats
Station Details ID: 086361 Name: CERBERUS Lat: -38.36 Lon: 145.18 Height: 12.69 m
Data from the previous 72 hours. | See also: Recent months at Cerberus
Date/Time
EDT
Temp
°C
App
Temp
°C
Dew
Point
°C
Rel
Hum
%
Delta-T
°C
Wind Press
QNH
hPa
Press
MSL
hPa
Rain since
9am
mm
Dir  Spd
km/h
Gust
km/h
Spd
kts
Gust
kts
27/10:30am 24.5 21.7 11.5 44 7.3 NNW 17 28 9 15 1022.8 1022.7 0.0
27/10:00am 22.2 22.1 13.8 59 4.9 NNE 7 11 4 6 1022.8 1022.7 0.0
27/09:30am 19.8 19.8 14.2 70 3.2 NE 7 9 4 5 1023.0 1022.9 0.0
27/09:00am 18.2 17.7 13.9 76 2.4 NE 9 15 5 8 1023.0 1022.9 0.0
27/08:30am 17.3 17.0 13.2 77 2.3 NE 7 13 4 7 1022.9 1022.8 0.0
27/08:00am 16.5 16.5 13.6 83 1.6 NE 6 13 3 7 1022.7 1022.6 0.0
27/07:30am 15.2 15.0 12.9 86 1.3 NNE 6 7 3 4 1022.6 1022.5 0.0
27/07:00am 14.6 14.6 12.3 86 1.2 NE 4 6 2 3 1022.0 1021.9 0.0
27/06:30am 14.6 14.9 12.1 85 1.4 NE 2 4 1 2 1021.6 1021.5 0.0
27/06:00am 14.9 15.2 12.2 84 1.5 NE 2 4 1 2 1021.3 1021.2 0.0
27/05:30am 15.3 15.6 12.2 82 1.7 NE 2 4 1 2 1021.1 1021.0 0.0
27/05:00am 15.7 15.8 12.6 82 1.7 NE 4 7 2 4 1020.8 1020.7 0.0
27/04:30am 15.9 16.0 12.6 81 1.8 NE 4 7 2 4 1020.7 1020.6 0.0
27/04:00am 15.7 15.7 12.5 81 1.8 NE 4 6 2 3 1020.8 1020.7 0.0
27/03:30am 16.2 16.3 12.6 79 2.0 ENE 4 7 2 4 1020.9 1020.8 0.0
27/03:00am 16.7 16.4 12.7 77 2.2 NE 6 11 3 6 1021.1 1021.0 0.0
27/02:30am 16.8 16.5 12.7 77 2.3 NE 6 9 3 5 1021.0 1020.9 0.0
27/02:00am 16.8 16.4 12.3 75 2.5 NE 6 7 3 4 1021.2 1021.1 0.0
27/01:30am 17.1 16.5 12.2 73 2.7 NE 7 13 4 7 1021.3 1021.2 0.0
27/01:00am 17.3 16.8 12.2 72 2.8 ENE 6 15 3 8 1021.4 1021.3 0.0
27/12:30am 17.7 16.7 12.4 71 2.9 ENE 9 13 5 7 1021.5 1021.4 0.0
27/12:00am 17.9 16.5 12.1 69 3.2 ENE 11 17 6 9 1021.5 1021.4 0.0
 
Date/Time
EDT
Temp
°C
App
Temp
°C
Dew
Point
°C
Rel
Hum
%
Delta-T
°C
Wind Press
QNH
hPa
Press
MSL
hPa
Rain since
9am
mm
Dir  Spd
km/h
Gust
km/h
Spd
kts
Gust
kts
26/11:30pm 18.3 16.4 11.8 66 3.6 ENE 13 20 7 11 1021.7 1021.6 0.0
26/11:00pm 18.6 16.7 11.7 64 3.8 ENE 13 20 7 11 1021.8 1021.7 0.0
26/10:30pm 19.1 16.7 11.4 61 4.2 ENE 15 26 8 14 1021.8 1021.7 0.0
26/10:00pm 19.7 16.9 11.2 58 4.6 ENE 17 32 9 17 1021.7 1021.6 0.0
26/09:30pm 20.0 18.9 12.0 60 4.5 NE 9 15 5 8 1021.5 1021.4 0.0
26/09:00pm 20.8 19.6 11.7 56 5.0 ENE 9 17 5 9 1021.2 1021.1 0.0
26/08:30pm 21.8 20.4 12.1 54 5.5 ENE 11 22 6 12 1020.7 1020.6 0.0
26/08:00pm 22.9 20.6 11.6 49 6.3 ENE 15 24 8 13 1020.1 1020.0 0.0
26/07:30pm 24.4 22.4 11.4 44 7.3 ENE 13 26 7 14 1019.9 1019.8 0.0
26/07:00pm 25.0 24.2 13.9 50 6.5 ESE 11 19 6 10 1019.6 1019.5 0.0
26/06:30pm 24.6 22.4 14.4 53 6.0 ESE 19 30 10 16 1019.3 1019.2 0.0
26/06:00pm 25.6 23.5 13.5 47 7.1 SE 17 30 9 16 1019.3 1019.2 0.0
26/05:30pm 26.7 24.6 12.4 41 8.3 SE 15 24 8 13 1019.2 1019.1 0.0
26/05:00pm 27.4 26.3 10.6 35 9.5 ESE 7 13 4 7 1019.2 1019.1 0.0
26/04:30pm 27.1 25.4 9.9 34 9.6 SE 9 19 5 10 1019.5 1019.4 0.0
26/04:00pm 27.7 26.9 11.7 37 9.2 ESE 7 15 4 8 1019.6 1019.5 0.0
26/03:30pm 26.9 25.0 10.6 36 9.2 ESE 11 19 6 10 1019.9 1019.8 0.0
26/03:00pm 26.6 25.4 10.3 36 9.1 E 7 15 4 8 1020.3 1020.2 0.0
26/02:30pm 26.4 25.3 10.5 37 8.9 NE 7 17 4 9 1020.5 1020.4 0.0
26/02:00pm 25.9 24.1 10.9 39 8.4 NNE 11 20 6 11 1020.7 1020.6 0.0
26/01:30pm 25.4 22.9 11.2 41 8.0 NNE 15 22 8 12 1020.9 1020.8 0.0
26/01:00pm 24.4 21.8 10.7 42 7.6 NE 15 26 8 14 1021.2 1021.1 0.0
26/12:30pm 24.1 21.5 12.1 47 6.8 NE 17 28 9 15 1021.6 1021.5 0.0
26/12:00pm 23.3 21.0 11.7 48 6.5 ENE 15 26 8 14 1021.7 1021.6 0.0
26/11:30am 23.4 20.4 11.8 48 6.5 ENE 19 26 10 14 1022.0 1021.9 0.0
26/11:00am 22.4 20.1 11.8 51 5.9 ENE 15 24 8 13 1022.0 1021.9 0.0
26/10:30am 21.2 18.4 11.2 53 5.5 ENE 17 26 9 14 1022.2 1022.1 0.0
26/10:00am 19.7 16.3 11.2 58 4.6 ENE 20 32 11 17 1022.1 1022.0 0.0
26/09:30am 19.3 17.7 11.6 61 4.2 ENE 11 24 6 13 1022.1 1022.0 0.0
26/09:00am 18.6 17.4 11.7 64 3.8 ENE 9 19 5 10 1022.1 1022.0 0.0
26/08:30am 18.0 16.9 12.0 68 3.3 E 9 15 5 8 1022.1 1022.0 0.0
26/08:00am 17.2 16.5 11.9 71 2.9 E 7 13 4 7 1021.8 1021.7 0.0
26/07:30am 15.9 15.0 11.5 75 2.4 E 7 11 4 6 1021.5 1021.4 0.0
26/07:00am 15.7 14.9 11.7 77 2.2 ESE 7 9 4 5 1021.3 1021.2 0.0
26/06:30am 15.9 14.8 11.9 77 2.2 ESE 9 17 5 9 1021.1 1021.0 0.0
26/06:00am 16.0 15.0 12.2 78 2.1 ESE 9 17 5 9 1020.8 1020.7 0.0
26/05:30am 16.0 15.0 12.2 78 2.1 E 9 15 5 8 1020.4 1020.3 0.0
26/05:00am 16.1 14.9 12.7 80 1.9 ESE 11 17 6 9 1020.5 1020.4 0.0
26/04:30am 16.1 15.2 12.7 80 1.9 ESE 9 15 5 8 1020.5 1020.4 0.0
26/04:00am 15.9 15.0 12.6 81 1.8 ESE 9 19 5 10 1020.5 1020.4 0.0
26/03:30am 16.1 14.5 12.8 81 1.8 ESE 13 20 7 11 1020.8 1020.7 0.0
26/03:00am 16.1 14.6 13.0 82 1.7 SE 13 22 7 12 1021.7 1021.6 0.0
26/02:30am 16.4 15.2 12.8 79 2.0 SE 11 19 6 10 1021.7 1021.6 0.0
26/02:00am 16.9 15.6 12.6 76 2.4 ESE 11 19 6 10 1021.9 1021.8 0.0
26/01:30am 17.0 15.6 13.3 79 2.1 ESE 13 19 7 10 1022.1 1022.0 0.0
26/01:00am 17.0 15.3 13.5 80 2.0 ESE 15 26 8 14 1021.9 1021.8 0.0
26/12:30am 16.8 15.1 13.7 82 1.8 SE 15 28 8 15 1022.3 1022.2 0.0
26/12:00am 16.7 14.6 13.6 82 1.7 SE 17 28 9 15 1022.6 1022.5 0.0
 
Date/Time
EDT
Temp
°C
App
Temp
°C
Dew
Point
°C
Rel
Hum
%
Delta-T
°C
Wind Press
QNH
hPa
Press
MSL
hPa
Rain since
9am
mm
Dir  Spd
km/h
Gust
km/h
Spd
kts
Gust
kts
25/11:30pm 16.8 15.6 13.9 83 1.6 ESE 13 24 7 13 1022.5 1022.4 0.0
25/11:00pm 16.7 15.8 13.8 83 1.6 ESE 11 19 6 10 1022.5 1022.4 0.0
25/10:30pm 16.8 15.2 13.9 83 1.6 SE 15 24 8 13 1022.6 1022.5 0.0
25/10:00pm 17.2 15.2 13.9 81 1.9 SE 17 26 9 14 1022.6 1022.5 0.0
25/09:30pm 17.2 14.8 13.7 80 2.0 SE 19 33 10 18 1022.4 1022.3 0.0
25/09:00pm 17.3 15.6 13.6 79 2.1 SE 15 26 8 14 1022.0 1021.9 0.0
25/08:30pm 17.6 15.9 13.7 78 2.2 SE 15 30 8 16 1021.7 1021.6 0.0
25/08:00pm 17.2 16.4 14.1 82 1.8 SSE 11 20 6 11 1021.6 1021.5 0.0
25/07:30pm 17.5 15.0 14.0 80 2.0 SE 20 32 11 17 1021.8 1021.7 0.0
25/07:00pm 18.3 15.7 13.8 75 2.6 SE 20 33 11 18 1021.8 1021.7 0.0
25/06:30pm 18.1 15.5 13.2 73 2.8 S 19 28 10 15 1021.9 1021.8 0.0
25/06:00pm 18.7 15.5 11.8 64 3.8 S 20 33 11 18 1022.1 1022.0 0.0
25/05:30pm 18.7 15.4 11.0 61 4.2 S 19 32 10 17 1022.3 1022.2 0.0
25/05:00pm 18.1 13.7 8.9 55 4.8 S 22 35 12 19 1022.4 1022.3 0.0
25/04:30pm 18.3 14.3 9.1 55 4.8 SSW 20 30 11 16 1022.5 1022.4 0.0
25/04:00pm 17.9 14.0 8.5 54 4.8 SSW 19 26 10 14 1022.6 1022.5 0.0
25/03:30pm 17.7 13.6 8.0 53 4.9 SSW 19 26 10 14 1022.6 1022.5 0.0
25/03:00pm 18.5 14.9 8.5 52 5.1 SSW 17 22 9 12 1022.8 1022.7 0.0
25/02:30pm 18.3 15.8 8.3 52 5.1 SW 11 17 6 9 1022.9 1022.8 0.0
25/02:00pm 18.2 15.4 8.5 53 5.0 SW 13 20 7 11 1023.3 1023.2 0.0
25/01:30pm 18.1 15.3 8.4 53 5.0 SW 13 22 7 12 1023.7 1023.6 0.0
25/01:00pm 17.2 13.5 8.1 55 4.6 SW 17 22 9 12 1024.2 1024.1 0.0
25/12:30pm 17.8 14.8 7.8 52 5.1 S 13 22 7 12 1024.4 1024.3 0.0
25/12:00pm 17.3 14.4 8.2 55 4.6 SSW 13 24 7 13 1024.9 1024.8 0.0
25/11:30am 16.8 13.7 7.4 54 4.7 SSW 13 20 7 11 1025.1 1025.0 0.0
25/11:00am 17.1 14.2 8.3 56 4.5 SSW 13 22 7 12 1025.2 1025.1 0.0
25/10:30am 17.4 14.8 7.7 53 4.9 S 11 17 6 9 1025.3 1025.2 0.0
25/10:00am 16.6 13.5 7.3 54 4.6 S 13 20 7 11 1025.2 1025.1 0.0
25/09:30am 15.9 12.4 7.4 57 4.2 SSE 15 20 8 11 1025.3 1025.2 0.0
25/09:00am 16.0 13.5 8.0 59 4.0 SSE 11 20 6 11 1025.3 1025.2 0.0
25/08:30am 14.9 12.5 7.2 60 3.8 SSE 9 19 5 10 1025.1 1025.0 0.0
25/08:00am 14.6 12.8 8.1 65 3.2 SSE 7 15 4 8 1024.9 1024.8 0.0
25/07:30am 13.7 11.9 7.9 68 2.9 SSE 7 13 4 7 1024.8 1024.7 0.0
25/07:00am 13.5 11.3 7.7 68 2.8 SSE 9 13 5 7 1024.5 1024.4 0.0
25/06:30am 13.4 11.5 7.4 67 2.9 SSE 7 15 4 8 1024.3 1024.2 0.0
25/06:00am 13.8 11.4 7.1 64 3.2 SSE 9 15 5 8 1024.2 1024.1 0.0
25/05:30am 14.1 11.4 7.2 63 3.4 SSE 11 20 6 11 1024.2 1024.1 0.0
25/05:00am 13.8 11.0 6.9 63 3.3 S 11 19 6 10 1024.1 1024.0 0.0
25/04:30am 14.2 11.0 7.0 62 3.5 SSE 13 19 7 10 1024.3 1024.2 0.0
25/04:00am 14.4 11.8 7.9 65 3.2 S 11 20 6 11 1024.4 1024.3 0.0
25/03:30am 14.5 11.5 7.5 63 3.5 S 13 28 7 15 1024.5 1024.4 0.0
25/03:00am 14.5 11.2 8.0 65 3.2 S 15 24 8 13 1024.6 1024.5 0.0
25/02:30am 14.4 11.9 8.4 67 3.0 S 11 17 6 9 1024.8 1024.7 0.0
25/02:00am 14.7 11.4 8.0 64 3.3 S 15 22 8 12 1025.1 1025.0 0.0
25/01:30am 14.6 11.6 7.9 64 3.3 S 13 20 7 11 1025.1 1025.0 0.0
25/01:00am 14.7 12.0 8.9 68 2.9 S 13 24 7 13 1025.2 1025.1 0.0
25/12:30am 15.2 12.9 10.6 74 2.4 S 13 22 7 12 1025.1 1025.0 0.0
25/12:00am 15.9 14.0 10.4 70 2.9 S 11 19 6 10 1025.2 1025.1 0.0
 
Date/Time
EDT
Temp
°C
App
Temp
°C
Dew
Point
°C
Rel
Hum
%
Delta-T
°C
Wind Press
QNH
hPa
Press
MSL
hPa
Rain since
9am
mm
Dir  Spd
km/h
Gust
km/h
Spd
kts
Gust
kts
24/11:30pm 15.0 14.4 10.4 74 2.4 S 4 6 2 3 1025.3 1025.2 0.0
24/11:00pm 14.5 13.3 9.7 73 2.5 S 6 9 3 5 1025.5 1025.4 0.0
24/10:30pm 15.0 13.6 9.6 70 2.8 S 7 11 4 6 1025.7 1025.6 0.0
24/10:00pm 15.6 13.4 9.5 67 3.1 S 11 20 6 11 1025.9 1025.8 0.0
24/09:30pm 16.5 14.1 9.9 65 3.5 S 13 22 7 12 1025.7 1025.6 0.0
24/09:00pm 16.4 14.0 10.0 66 3.3 S 13 20 7 11 1025.5 1025.4 0.0
24/08:30pm 16.3 14.1 10.8 70 2.9 S 13 22 7 12 1025.3 1025.2 0.0
24/08:00pm 16.8 14.6 10.9 68 3.1 SSW 13 24 7 13 1025.0 1024.9 0.0
24/07:30pm 16.9 14.4 9.6 62 3.8 SSW 13 24 7 13 1025.0 1024.9 0.0
24/07:00pm 17.5 14.6 9.7 60 4.1 SW 15 24 8 13 1024.9 1024.8 0.0
24/06:30pm 17.5 15.2 10.4 63 3.8 SSW 13 20 7 11 1024.9 1024.8 0.0
24/06:00pm 18.0 14.8 10.1 60 4.2 SSW 17 26 9 14 1024.8 1024.7 0.0
24/05:30pm 18.6 15.3 9.7 56 4.7 SSW 17 26 9 14 1024.8 1024.7 0.0
24/05:00pm 17.6 14.6 9.2 58 4.4 SSW 15 24 8 13 1024.8 1024.7 0.0
24/04:30pm 17.8 14.4 9.2 57 4.5 SSW 17 24 9 13 1024.8 1024.7 0.0
24/04:00pm 18.1 14.1 8.4 53 5.0 SSW 19 30 10 16 1024.9 1024.8 0.0
24/03:30pm 18.8 15.4 9.0 53 5.1 SSW 17 24 9 13 1025.0 1024.9 0.0
24/03:00pm 17.4 14.5 9.6 60 4.1 SW 15 22 8 12 1025.3 1025.2 0.0
24/02:30pm 18.1 14.3 9.2 56 4.7 SSW 19 26 10 14 1025.2 1025.1 0.0
24/02:00pm 17.6 15.0 9.2 58 4.4 SSW 13 19 7 10 1025.4 1025.3 0.0
24/01:30pm 17.3 14.3 9.2 59 4.2 SSW 15 20 8 11 1025.3 1025.2 0.0
24/01:00pm 17.7 14.5 8.6 55 4.7 SSW 15 22 8 12 1025.3 1025.2 0.0
24/12:30pm 17.6 14.3 7.9 53 4.9 SSW 15 26 8 14 1025.3 1025.2 0.0
24/12:00pm 17.8 14.3 8.6 55 4.7 SSW 17 22 9 12 1025.5 1025.4 0.0
24/11:30am 17.5 13.8 8.1 54 4.8 SSW 17 24 9 13 1025.4 1025.3 0.0
24/11:00am 17.8 13.8 8.1 53 4.9 SW 19 28 10 15 1025.3 1025.2 0.0

Latest Capital City Observations: Canberra | Sydney | Melbourne | Brisbane | Adelaide | Perth | Hobart | Darwin

Other Formats:

Comma delimited format used in spreadsheet applications
http://www.bom.gov.au/fwo/IDV60901/IDV60901.94898.axf

JavaScript Object Notation format (JSON) in row-major order
http://www.bom.gov.au/fwo/IDV60901/IDV60901.94898.json